Time;durP1;ratioP1;P1;durP2;ratioP2;P2;SDS_P1;SDS_P2;PMS_P1;PMS_P2;Temp;Humidity;BMP_temperature;BMP_pressure;BME280_temperature;BME280_humidity;BME280_pressure;Samples;Min_cycle;Max_cycle;Signal;HPM_P1;HPM_P2
2022/10/14 00:04:23;;;;;;;64.38;36.40;;;;;;;12.13;89.02;100389.69;10381875;28;20060;-79
2022/10/14 00:09:26;;;;;;;66.63;37.28;;;;;;;12.09;89.09;100385.56;10386449;28;20048;-78
2022/10/14 00:14:30;;;;;;;65.50;39.45;;;;;;;12.08;89.45;100389.25;10396218;28;20052;-78
2022/10/14 00:19:33;;;;;;;63.42;36.10;;;;;;;12.01;89.44;100385.38;10394672;28;20050;-79
2022/10/14 00:24:36;;;;;;;65.80;38.25;;;;;;;12.05;89.50;100386.81;10412057;28;20052;-78
2022/10/14 00:29:40;;;;;;;69.13;40.08;;;;;;;12.23;88.51;100384.34;10397381;28;20045;-78
2022/10/14 00:34:43;;;;;;;69.20;39.97;;;;;;;12.25;88.56;100383.22;10396170;28;21499;-79
2022/10/14 00:39:46;;;;;;;73.95;40.92;;;;;;;12.17;88.88;100385.72;10394210;28;20182;-79
2022/10/14 00:45:07;;;;;;;76.25;42.78;;;;;;;11.98;90.07;100378.41;10396473;28;20053;-79
2022/10/14 00:50:13;;;;;;;71.57;40.78;;;;;;;12.16;88.89;100378.66;10368320;28;20045;-78
2022/10/14 00:55:18;;;;;;;72.68;38.63;;;;;;;12.11;89.07;100375.50;10379865;28;20119;-79
2022/10/14 01:00:23;;;;;;;74.13;40.47;;;;;;;12.15;88.85;100382.34;10411086;28;20048;-78
2022/10/14 01:05:32;;;;;;;69.72;40.75;;;;;;;12.13;88.78;100370.84;10370656;28;20049;-78
2022/10/14 01:10:41;;;;;;;73.85;39.80;;;;;;;12.12;88.74;100367.31;10393784;28;20083;-79
2022/10/14 01:15:54;;;;;;;74.63;41.53;;;;;;;12.18;88.43;100371.31;10393853;28;20063;-78
2022/10/14 01:21:25;;;;;;;73.65;40.90;;;;;;;12.16;88.16;100371.41;10397797;28;20045;-79
2022/10/14 01:26:44;;;;;;;66.60;38.17;;;;;;;12.20;88.02;100365.75;10383018;28;20151;-79
2022/10/14 01:31:53;;;;;;;68.55;36.58;;;;;;;12.20;88.02;100365.75;10400586;28;20383;-79
2022/10/14 01:37:00;;;;;;;71.47;38.03;;;;;;;12.16;87.87;100371.41;10408046;28;20128;-79
2022/10/14 01:42:08;;;;;;;70.13;37.15;;;;;;;12.22;87.70;100359.25;10395310;28;20041;-79
2022/10/14 01:47:16;;;;;;;62.05;35.63;;;;;;;12.12;87.48;100356.53;10388905;28;20042;-79
2022/10/14 01:52:22;;;;;;;62.35;35.85;;;;;;;12.05;87.66;100355.38;10384834;28;20038;-78
2022/10/14 01:57:29;;;;;;;66.95;34.78;;;;;;;12.05;87.35;100358.06;10408989;28;20133;-79
2022/10/14 02:02:36;;;;;;;70.13;37.63;;;;;;;12.04;87.51;100347.41;10388615;28;20060;-79
2022/10/14 02:07:44;;;;;;;69.72;36.47;;;;;;;12.06;87.12;100353.50;10387406;28;20053;-79
2022/10/14 02:13:03;;;;;;;58.80;35.03;;;;;;;12.12;86.89;100337.69;10392632;28;20112;-78
2022/10/14 02:18:17;;;;;;;68.22;36.25;;;;;;;12.16;86.76;100343.66;10408068;28;20195;-79
2022/10/14 02:23:24;;;;;;;66.97;33.85;;;;;;;12.10;86.75;100339.66;10393759;28;20077;-78
2022/10/14 02:28:32;;;;;;;62.67;35.38;;;;;;;12.09;86.58;100337.09;10402387;28;20049;-79
2022/10/14 02:33:40;;;;;;;67.03;35.90;;;;;;;12.11;86.74;100337.81;10414887;28;20088;-78
2022/10/14 02:38:45;;;;;;;62.13;33.65;;;;;;;12.09;86.33;100334.41;10389477;28;21412;-78
2022/10/14 02:43:49;;;;;;;63.95;34.92;;;;;;;12.03;86.56;100329.56;10376985;28;20056;-81
2022/10/14 02:48:54;;;;;;;61.60;34.40;;;;;;;11.86;87.16;100323.81;10405937;28;20091;-79
2022/10/14 02:53:57;;;;;;;60.63;33.03;;;;;;;11.93;86.72;100326.84;10410988;28;20053;-79
2022/10/14 02:59:01;;;;;;;73.13;37.95;;;;;;;12.09;86.21;100324.47;10405156;28;20065;-79
2022/10/14 03:04:07;;;;;;;78.20;39.80;;;;;;;12.17;86.26;100324.66;10376820;28;20056;-79
2022/10/14 03:09:10;;;;;;;77.65;40.20;;;;;;;12.14;86.27;100316.00;10387132;28;20049;-79
2022/10/14 03:14:15;;;;;;;79.18;41.80;;;;;;;12.15;86.47;100318.56;10383853;28;20051;-79
2022/10/14 03:19:20;;;;;;;79.63;41.22;;;;;;;12.20;86.20;100301.13;10391586;28;20528;-79
2022/10/14 03:24:27;;;;;;;84.85;41.45;;;;;;;12.15;86.37;100315.03;10365803;28;20049;-79
2022/10/14 03:29:50;;;;;;;;;;;;;;;12.17;86.21;100311.19;10387929;28;20052;-79
2022/10/14 03:34:58;;;;;;;85.80;40.90;;;;;;;11.85;87.32;100318.59;10401126;28;19961;-79
2022/10/14 03:40:01;;;;;;;87.53;42.95;;;;;;;11.89;87.01;100315.47;10404081;28;20049;-80
2022/10/14 03:45:07;;;;;;;87.53;40.40;;;;;;;12.06;86.22;100307.75;10398780;28;20450;-79
2022/10/14 03:50:14;;;;;;;91.30;43.85;;;;;;;12.03;86.24;100308.88;10418994;28;20080;-79
2022/10/14 03:55:24;;;;;;;98.97;44.23;;;;;;;12.00;86.57;100311.00;10400148;28;20052;-80
2022/10/14 04:00:27;;;;;;;86.22;40.88;;;;;;;12.08;85.83;100312.00;10406510;28;20056;-79
2022/10/14 04:05:46;;;;;;;87.82;41.00;;;;;;;12.03;85.83;100303.47;10411461;28;20061;-79
2022/10/14 04:10:54;;;;;;;86.07;40.88;;;;;;;12.01;85.69;100304.59;10409295;28;20037;-79
2022/10/14 04:16:02;;;;;;;79.60;38.55;;;;;;;11.91;85.76;100302.72;10405183;28;20057;-80
2022/10/14 04:21:24;;;;;;;82.28;39.28;;;;;;;12.04;85.32;100299.81;10412253;28;20044;-79
2022/10/14 04:26:28;;;;;;;76.25;37.92;;;;;;;12.04;85.19;100302.50;10403245;28;20068;-80
2022/10/14 04:31:32;;;;;;;80.88;35.75;;;;;;;11.83;84.75;100294.47;10406218;28;20057;-79
2022/10/14 04:36:39;;;;;;;83.85;37.83;;;;;;;12.03;85.01;100294.56;10418640;28;20052;-79
2022/10/14 04:41:56;;;;;;;83.63;39.92;;;;;;;11.96;85.04;100294.25;10436261;28;20033;-78
2022/10/14 04:46:59;;;;;;;76.93;36.40;;;;;;;12.03;84.89;100295.41;10422300;28;20061;-79
2022/10/14 04:52:04;;;;;;;79.18;37.33;;;;;;;11.99;85.04;100291.28;10397997;28;20048;-78
2022/10/14 04:57:19;;;;;;;79.30;36.88;;;;;;;12.02;85.08;100287.47;10406617;28;20079;-79
2022/10/14 05:02:23;;;;;;;76.30;36.97;;;;;;;12.03;85.19;100287.34;10404346;28;20037;-80
2022/10/14 05:07:35;;;;;;;80.80;37.63;;;;;;;12.04;85.11;100280.09;10403227;28;20067;-78
2022/10/14 05:12:54;;;;;;;84.25;37.00;;;;;;;11.97;85.21;100274.41;10386803;28;20063;-79
2022/10/14 05:17:59;;;;;;;86.30;38.67;;;;;;;11.98;84.98;100269.88;10404265;28;20068;-80
2022/10/14 05:23:19;;;;;;;88.03;39.53;;;;;;;11.98;85.01;100270.72;10399267;28;20079;-79
2022/10/14 05:28:23;;;;;;;85.15;36.90;;;;;;;11.91;85.07;100280.34;10407145;28;20549;-80
2022/10/14 05:33:27;;;;;;;91.53;40.53;;;;;;;11.88;85.52;100286.84;10403967;28;20134;-80
2022/10/14 05:38:33;;;;;;;89.13;39.10;;;;;;;11.87;85.63;100284.28;10407770;28;20051;-79
2022/10/14 05:43:36;;;;;;;93.30;40.53;;;;;;;11.89;85.51;100285.88;10414325;28;20152;-79
2022/10/14 05:48:41;;;;;;;97.75;40.90;;;;;;;11.94;85.69;100291.69;10400817;28;20060;-81
2022/10/14 05:53:45;;;;;;;96.63;40.50;;;;;;;11.92;85.96;100295.50;10403069;28;20124;-79
2022/10/14 05:58:53;;;;;;;91.90;40.00;;;;;;;11.93;85.80;100283.78;10398859;28;20061;-80
2022/10/14 06:03:56;;;;;;;97.07;40.05;;;;;;;11.92;86.19;100287.44;10409270;28;20839;-80
2022/10/14 06:09:00;;;;;;;92.32;38.55;;;;;;;11.85;86.22;100278.22;10411074;28;20057;-80
2022/10/14 06:14:03;;;;;;;100.68;40.58;;;;;;;11.92;86.04;100279.34;10431203;28;20048;-81
2022/10/14 06:19:07;;;;;;;98.32;39.25;;;;;;;11.95;85.98;100271.84;10407604;28;20523;-79
2022/10/14 06:24:11;;;;;;;64.95;29.08;;;;;;;12.02;86.49;100276.72;10439636;28;20037;-81
2022/10/14 06:29:14;;;;;;;57.53;26.02;;;;;;;12.03;86.66;100264.94;10456628;28;20076;-81
2022/10/14 06:34:18;;;;;;;89.38;36.83;;;;;;;11.99;86.28;100275.16;10447100;28;20076;-80
2022/10/14 06:39:23;;;;;;;98.65;38.70;;;;;;;12.08;86.89;100260.84;10408096;28;20059;-79
2022/10/14 06:44:25;;;;;;;103.25;38.80;;;;;;;12.12;86.91;100267.69;10414503;28;20051;-80
2022/10/14 06:49:28;;;;;;;106.60;39.83;;;;;;;12.26;87.19;100257.47;10422985;28;20041;-80
2022/10/14 06:54:32;;;;;;;95.47;36.10;;;;;;;12.39;87.16;100247.34;10421401;28;20051;-80
2022/10/14 06:59:40;;;;;;;95.15;37.72;;;;;;;12.54;87.43;100245.13;10419048;28;20052;-79
2022/10/14 07:04:43;;;;;;;92.68;35.72;;;;;;;12.58;86.30;100249.22;10428217;28;20127;-80
2022/10/14 07:09:47;;;;;;;82.13;34.03;;;;;;;12.59;86.47;100253.63;10423433;28;20049;-81
2022/10/14 07:14:50;;;;;;;91.18;35.33;;;;;;;12.59;86.57;100257.16;10424677;28;20072;-80
2022/10/14 07:19:53;;;;;;;;;;;;;;;12.70;86.62;100252.63;10412499;28;20115;-79
2022/10/14 07:24:57;;;;;;;78.97;32.53;;;;;;;12.78;85.77;100250.94;10420779;28;19978;-79
2022/10/14 07:30:00;;;;;;;68.50;30.30;;;;;;;12.87;86.20;100249.22;10420427;28;20128;-80
2022/10/14 07:35:03;;;;;;;67.93;29.27;;;;;;;13.01;85.53;100248.78;10422601;28;20131;-79
2022/10/14 07:40:09;;;;;;;59.85;28.20;;;;;;;13.14;85.53;100250.34;10413516;28;20061;-81
2022/10/14 07:45:15;;;;;;;55.45;26.63;;;;;;;13.36;84.50;100252.72;10399498;28;20049;-79
2022/10/14 07:50:18;;;;;;;52.45;25.50;;;;;;;13.59;84.10;100244.28;10411987;28;20403;-79
2022/10/14 07:55:22;;;;;;;51.50;25.90;;;;;;;13.56;83.06;100234.66;10420328;28;20052;-79
2022/10/14 08:00:25;;;;;;;55.10;25.95;;;;;;;13.47;82.16;100232.84;10416947;28;20045;-79
2022/10/14 08:05:28;;;;;;;55.38;26.60;;;;;;;13.30;82.59;100230.84;10418922;28;20497;-78
2022/10/14 08:10:47;;;;;;;43.58;24.10;;;;;;;13.31;82.88;100221.78;10415209;28;20661;-79
2022/10/14 08:15:50;;;;;;;43.53;22.02;;;;;;;13.39;82.51;100220.06;10420327;28;20167;-78
2022/10/14 08:20:53;;;;;;;48.05;24.50;;;;;;;14.02;81.17;100205.88;10424401;28;20045;-78
2022/10/14 08:25:57;;;;;;;43.65;22.60;;;;;;;14.38;80.64;100204.09;10423357;28;20049;-79
2022/10/14 08:30:59;;;;;;;19.05;11.00;;;;;;;14.62;76.32;100218.00;10421679;28;20044;-79
2022/10/14 08:36:02;;;;;;;17.50;9.90;;;;;;;14.68;73.56;100223.66;10408482;28;20061;-79
2022/10/14 08:41:26;;;;;;;13.32;9.98;;;;;;;14.37;75.95;100220.41;10401176;28;20704;-79
2022/10/14 08:46:34;;;;;;;9.15;7.63;;;;;;;14.44;74.98;100229.66;10412206;28;21787;-79
2022/10/14 08:51:38;;;;;;;10.35;8.93;;;;;;;14.34;75.92;100226.13;10414993;28;20057;-79
2022/10/14 08:56:43;;;;;;;14.38;8.63;;;;;;;14.37;75.68;100224.00;10419974;28;20065;-80
2022/10/14 09:01:51;;;;;;;10.93;7.75;;;;;;;14.62;75.13;100213.47;10397213;28;20049;-79
2022/10/14 09:06:55;;;;;;;11.13;8.73;;;;;;;15.02;73.91;100217.50;10404212;28;20049;-80
2022/10/14 09:12:02;;;;;;;10.13;8.25;;;;;;;14.97;73.22;100204.44;10405990;28;21720;-79
2022/10/14 09:17:08;;;;;;;10.88;7.70;;;;;;;14.88;73.93;100212.66;10379916;28;20072;-80
2022/10/14 09:22:14;;;;;;;11.25;6.97;;;;;;;14.91;73.68;100204.22;10388370;28;20056;-80
2022/10/14 09:27:20;;;;;;;7.45;6.55;;;;;;;15.56;72.05;100183.03;10420989;28;20048;-80
2022/10/14 09:32:28;;;;;;;7.68;6.80;;;;;;;16.35;70.50;100184.50;10417369;28;20049;-80
2022/10/14 09:37:33;;;;;;;7.15;4.85;;;;;;;16.83;66.24;100181.16;10409948;28;20056;-82
2022/10/14 09:42:47;;;;;;;6.63;4.93;;;;;;;16.29;67.14;100174.34;10420374;28;20041;-81
2022/10/14 09:47:55;;;;;;;5.85;3.75;;;;;;;16.33;67.70;100172.16;10414043;28;21288;-79
2022/10/14 09:53:01;;;;;;;4.97;4.13;;;;;;;16.36;66.83;100174.53;10411406;28;20418;-81
2022/10/14 09:58:13;;;;;;;5.97;4.45;;;;;;;16.03;67.51;100165.44;10429095;28;20572;-79
2022/10/14 10:03:27;;;;;;;4.40;3.97;;;;;;;16.06;68.78;100146.16;10423790;28;20521;-80
2022/10/14 10:08:31;;;;;;;4.07;3.67;;;;;;;16.45;67.00;100148.25;10397023;28;20056;-80
2022/10/14 10:13:39;;;;;;;3.78;3.30;;;;;;;15.88;68.02;100144.41;10421751;28;20045;-80
2022/10/14 10:18:42;;;;;;;2.72;2.53;;;;;;;16.86;64.94;100137.41;10424623;28;20109;-80
2022/10/14 10:24:17;;;;;;;4.28;3.17;;;;;;;17.07;64.07;100134.16;10402404;28;20191;-78
2022/10/14 10:29:31;;;;;;;3.70;3.40;;;;;;;16.11;66.13;100141.06;10400597;28;20045;-79
2022/10/14 10:34:49;;;;;;;4.70;2.50;;;;;;;15.78;67.81;100119.31;10416787;28;20110;-80
2022/10/14 10:40:06;;;;;;;3.17;2.70;;;;;;;15.35;69.52;100120.34;10422204;28;20057;-79
2022/10/14 10:45:16;;;;;;;4.65;2.35;;;;;;;15.47;69.19;100117.19;10415546;28;20060;-81
2022/10/14 10:50:32;;;;;;;5.80;3.75;;;;;;;15.74;69.40;100106.28;10410950;28;20049;-80
2022/10/14 10:55:45;;;;;;;4.07;3.17;;;;;;;17.63;64.88;100091.56;10418138;28;20049;-81
2022/10/14 11:01:05;;;;;;;2.55;2.30;;;;;;;20.17;56.21;100076.25;10413291;28;20672;-81
2022/10/14 11:12:01;;;;;;;3.33;1.73;;;;;;;19.01;59.15;100084.25;10426541;28;20117;-80
2022/10/14 11:12:02;;;;;;;2.67;1.92;;;;;;;17.98;60.74;100073.06;10425977;28;20422;-80
2022/10/14 11:17:16;;;;;;;2.30;2.10;;;;;;;17.42;61.35;100075.91;10419619;28;20049;-79
2022/10/14 11:22:36;;;;;;;3.60;1.80;;;;;;;16.98;63.76;100084.50;10398428;28;20065;-80
2022/10/14 11:27:46;;;;;;;4.25;2.92;;;;;;;16.32;65.61;100070.19;10399857;28;20041;-80
2022/10/14 11:33:13;;;;;;;2.55;2.30;;;;;;;16.48;65.97;100056.63;10418369;28;20041;-80
2022/10/14 11:38:34;;;;;;;2.75;2.20;;;;;;;16.67;65.22;100058.09;10395824;28;20109;-79
2022/10/14 11:43:48;;;;;;;2.13;1.77;;;;;;;16.57;66.14;100044.75;10433217;28;20024;-79
2022/10/14 11:48:56;;;;;;;1.90;1.70;;;;;;;16.52;66.32;100033.56;10449631;28;20403;-80
2022/10/14 11:54:02;;;;;;;3.70;1.90;;;;;;;16.56;66.71;100034.06;10408909;28;20113;-80
2022/10/14 11:59:17;;;;;;;3.05;2.10;;;;;;;16.46;66.25;100026.13;10393889;28;20053;-78
2022/10/14 12:04:28;;;;;;;2.03;1.40;;;;;;;16.77;66.58;100012.66;10388107;28;21652;-80
2022/10/14 12:09:38;;;;;;;2.00;1.60;;;;;;;17.04;64.80;100010.53;10415140;28;20044;-79
2022/10/14 12:14:45;;;;;;;6.70;2.90;;;;;;;17.80;62.54;100002.66;10427706;28;20045;-78
2022/10/14 12:19:50;;;;;;;2.50;1.00;;;;;;;17.93;60.52;99987.44;10418138;28;20103;-80
2022/10/14 12:24:54;;;;;;;3.75;0.70;;;;;;;17.60;61.48;99997.72;10415350;28;20046;-78
2022/10/14 12:29:58;;;;;;;2.08;1.50;;;;;;;17.78;61.53;99994.72;10412014;28;20084;-79
2022/10/14 12:35:02;;;;;;;0.60;0.60;;;;;;;17.70;60.19;99975.75;10410689;28;21074;-80
2022/10/14 12:40:35;;;;;;;1.20;1.10;;;;;;;17.67;60.66;99968.81;10415866;28;20053;-79
2022/10/14 12:45:49;;;;;;;0.90;0.70;;;;;;;17.75;60.81;99967.09;10370747;28;20080;-78
2022/10/14 12:51:05;;;;;;;0.30;0.30;;;;;;;17.68;61.77;99954.19;10420855;28;20055;-78
2022/10/14 12:56:10;;;;;;;1.33;0.52;;;;;;;18.96;58.27;99949.78;10398483;28;20041;-79
2022/10/14 13:01:17;;;;;;;1.52;1.00;;;;;;;21.22;51.01;99925.22;10400353;28;20052;-79
2022/10/14 13:06:41;;;;;;;0.80;0.80;;;;;;;18.31;58.47;99944.00;10431163;28;20480;-78
2022/10/14 13:11:45;;;;;;;2.28;0.60;;;;;;;17.85;60.43;99929.63;10417463;28;21214;-78
2022/10/14 13:16:59;;;;;;;0.43;0.43;;;;;;;17.38;62.00;99934.22;10406928;28;20047;-78
2022/10/14 13:22:04;;;;;;;2.88;0.47;;;;;;;17.38;61.49;99925.22;10420372;28;20132;-78
2022/10/14 13:27:14;;;;;;;2.40;0.50;;;;;;;17.24;61.71;99907.84;10402275;28;20049;-78
2022/10/14 13:32:28;;;;;;;1.83;0.43;;;;;;;17.31;62.19;99911.56;10406538;28;20052;-78
2022/10/14 13:37:36;;;;;;;2.55;0.70;;;;;;;17.00;63.12;99906.97;10401120;28;20041;-78
2022/10/14 13:42:50;;;;;;;1.85;0.55;;;;;;;16.84;63.76;99904.31;10383696;28;20084;-79
2022/10/14 13:47:53;;;;;;;0.82;0.50;;;;;;;16.89;63.66;99891.06;10402699;28;21038;-78
2022/10/14 13:53:02;;;;;;;0.32;0.32;;;;;;;16.68;64.23;99877.28;10423558;28;20080;-79
2022/10/14 13:58:12;;;;;;;0.50;0.50;;;;;;;16.84;64.16;99873.63;10428699;28;20113;-78
2022/10/14 14:03:21;;;;;;;1.52;0.70;;;;;;;16.94;64.17;99874.25;10428469;28;20049;-78
2022/10/14 14:08:29;;;;;;;0.50;0.50;;;;;;;16.95;64.12;99857.81;10439107;28;20094;-79
2022/10/14 14:13:48;;;;;;;2.60;0.98;;;;;;;16.84;64.47;99857.34;10440362;28;20049;-78
2022/10/14 14:18:58;;;;;;;1.23;0.70;;;;;;;16.83;64.50;99842.09;10417726;28;20049;-78
2022/10/14 14:24:22;;;;;;;1.02;0.70;;;;;;;16.76;64.90;99839.28;10437585;28;20057;-78
2022/10/14 14:29:27;;;;;;;2.20;0.68;;;;;;;16.80;64.44;99824.31;10442425;28;20052;-79
2022/10/14 14:34:30;;;;;;;0.60;0.60;;;;;;;16.78;65.01;99820.94;10434716;28;20128;-79
2022/10/14 14:39:36;;;;;;;1.15;1.00;;;;;;;16.86;64.77;99815.47;10431287;28;20059;-78
2022/10/14 14:44:41;;;;;;;1.98;0.80;;;;;;;16.79;64.77;99814.50;10430947;28;20056;-78
2022/10/14 14:49:45;;;;;;;2.72;0.88;;;;;;;16.80;65.06;99803.47;10432281;28;20386;-78
2022/10/14 14:54:49;;;;;;;1.40;0.85;;;;;;;16.48;65.87;99812.66;10427041;28;20049;-78
2022/10/14 15:00:00;;;;;;;1.20;1.10;;;;;;;16.47;66.21;99810.09;10431103;28;20057;-78
2022/10/14 15:05:07;;;;;;;4.10;0.90;;;;;;;16.57;66.24;99814.28;10427317;28;20068;-78
2022/10/14 15:10:22;;;;;;;1.52;1.00;;;;;;;16.45;66.59;99804.84;10420235;28;20053;-78
2022/10/14 15:15:29;;;;;;;1.45;1.20;;;;;;;16.47;66.55;99799.25;10429293;28;20053;-78
2022/10/14 15:20:34;;;;;;;1.25;1.15;;;;;;;16.30;67.28;99802.03;10426958;28;20120;-78
2022/10/14 15:25:38;;;;;;;3.58;1.70;;;;;;;16.32;67.37;99801.88;10432300;28;20076;-78
2022/10/14 15:30:59;;;;;;;3.70;1.77;;;;;;;16.01;70.43;99808.03;10430359;28;20041;-78
2022/10/14 15:36:11;;;;;;;2.70;2.30;;;;;;;15.55;72.91;99813.22;10428365;28;20045;-78
2022/10/14 15:41:15;;;;;;;3.65;2.30;;;;;;;15.40;75.03;99815.72;10420882;28;20099;-78
2022/10/14 15:51:39;;;;;;;6.15;3.05;;;;;;;14.38;82.38;99812.31;10402047;28;20060;-77
2022/10/14 15:56:43;;;;;;;3.67;3.38;;;;;;;14.13;84.55;99811.34;10400398;28;20182;-78
2022/10/14 16:01:47;;;;;;;4.82;3.90;;;;;;;13.91;85.74;99801.94;10412314;28;20048;-78
2022/10/14 16:06:53;;;;;;;7.00;4.50;;;;;;;13.88;86.67;99799.56;10417751;28;20472;-78
2022/10/14 16:11:57;;;;;;;7.47;5.28;;;;;;;13.90;87.11;99796.69;10422017;28;20183;-79
2022/10/14 16:17:01;;;;;;;8.18;5.97;;;;;;;13.98;87.91;99785.09;10421290;28;20124;-78
2022/10/14 16:22:07;;;;;;;10.25;6.65;;;;;;;14.06;88.00;99788.66;10420068;28;20045;-78
2022/10/14 16:27:14;;;;;;;8.93;5.97;;;;;;;14.09;88.15;99779.41;10410421;28;20099;-78
2022/10/14 16:32:17;;;;;;;11.00;7.20;;;;;;;14.06;88.11;99777.03;10413568;28;20175;-78
2022/10/14 16:37:19;;;;;;;10.57;7.60;;;;;;;14.01;88.25;99766.69;10389905;28;20167;-78
2022/10/14 16:42:24;;;;;;;10.45;7.63;;;;;;;13.98;88.37;99766.19;10404624;28;20041;-78
2022/10/14 16:47:27;;;;;;;12.40;8.05;;;;;;;13.93;88.54;99766.66;10396584;28;20140;-78
2022/10/14 16:53:39;;;;;;;13.00;8.10;;;;;;;13.88;88.27;99759.06;10399700;28;20091;-78
2022/10/14 16:57:56;;;;;;;11.02;8.43;;;;;;;13.87;88.22;99757.34;10422169;28;20079;-78
2022/10/14 17:02:59;;;;;;;12.88;9.05;;;;;;;13.80;88.44;99758.19;10412140;28;20052;-78
2022/10/14 17:08:01;;;;;;;13.15;9.77;;;;;;;13.78;88.67;99752.94;10393612;28;20049;-77
2022/10/14 17:13:05;;;;;;;11.65;8.82;;;;;;;13.70;88.29;99744.78;10402816;28;20060;-78
2022/10/14 17:18:13;;;;;;;15.18;10.38;;;;;;;13.69;88.66;99737.72;10401521;28;20068;-77
2022/10/14 17:23:19;;;;;;;15.73;10.05;;;;;;;13.66;88.76;99744.28;10411601;28;20619;-77
2022/10/14 17:28:24;;;;;;;13.50;9.70;;;;;;;13.68;88.67;99746.78;10410458;28;20084;-77
2022/10/14 17:33:27;;;;;;;16.02;10.45;;;;;;;13.64;88.75;99737.34;10410334;28;20049;-77
2022/10/14 17:38:30;;;;;;;15.80;10.35;;;;;;;13.66;88.79;99735.34;10412847;28;20079;-77
2022/10/14 17:43:35;;;;;;;13.95;10.32;;;;;;;13.65;88.48;99731.75;10416415;28;21272;-77
2022/10/14 17:48:41;;;;;;;14.02;10.20;;;;;;;13.65;88.70;99734.47;10410596;28;20048;-78
2022/10/14 17:53:44;;;;;;;15.00;9.75;;;;;;;13.70;88.72;99729.44;10408046;28;20123;-78
2022/10/14 17:58:51;;;;;;;13.32;9.18;;;;;;;13.70;88.60;99724.03;10395377;28;21207;-78
2022/10/14 18:03:57;;;;;;;12.25;9.60;;;;;;;13.73;88.39;99733.66;10413107;28;20737;-78
2022/10/14 18:09:02;;;;;;;14.25;9.55;;;;;;;13.71;88.35;99728.44;10398752;28;20492;-78
2022/10/14 18:14:07;;;;;;;13.90;9.05;;;;;;;13.70;88.13;99731.28;10405957;28;20056;-78
2022/10/14 18:19:15;;;;;;;14.10;9.05;;;;;;;13.67;88.02;99729.75;10408152;28;20045;-78
2022/10/14 18:24:19;;;;;;;14.00;10.23;;;;;;;13.76;88.34;99722.53;10400968;28;20187;-77
2022/10/14 18:29:23;;;;;;;13.93;10.20;;;;;;;13.82;87.56;99721.06;10412435;28;21044;-77
2022/10/14 18:34:26;;;;;;;14.05;10.10;;;;;;;13.77;87.75;99713.47;10402123;28;20189;-78
2022/10/14 18:39:29;;;;;;;13.13;9.77;;;;;;;13.79;87.51;99703.31;10397619;28;20049;-77
2022/10/14 18:44:33;;;;;;;12.55;9.82;;;;;;;13.83;87.34;99706.56;10397390;28;20498;-77
2022/10/14 18:49:36;;;;;;;14.10;10.02;;;;;;;13.81;87.48;99701.31;10405108;28;20130;-77
2022/10/14 18:54:42;;;;;;;13.52;9.68;;;;;;;13.82;87.39;99700.31;10398026;28;20136;-77
2022/10/14 18:59:47;;;;;;;11.70;10.18;;;;;;;13.77;87.49;99704.50;10395736;28;20045;-77
2022/10/14 19:04:50;;;;;;;12.73;9.73;;;;;;;13.73;87.85;99695.88;10399432;28;20055;-77
2022/10/14 19:09:52;;;;;;;13.63;10.52;;;;;;;13.77;87.67;99699.09;10411391;28;20873;-77
2022/10/14 19:15:00;;;;;;;13.57;9.50;;;;;;;13.80;87.73;99701.50;10392000;28;20049;-77
2022/10/14 19:20:07;;;;;;;13.18;9.35;;;;;;;13.81;87.89;99692.38;10407971;28;20063;-76
2022/10/14 19:25:10;;;;;;;12.57;8.73;;;;;;;13.83;87.48;99699.31;10398280;28;20137;-78
2022/10/14 19:30:14;;;;;;;11.60;8.10;;;;;;;13.76;87.29;99690.16;10396838;28;21602;-78
2022/10/14 19:35:17;;;;;;;8.25;6.90;;;;;;;13.76;87.11;99690.16;10405918;28;20456;-76
2022/10/14 19:40:25;;;;;;;8.50;7.05;;;;;;;13.75;87.32;99671.44;10406741;28;20076;-77
2022/10/14 19:45:29;;;;;;;8.32;7.10;;;;;;;13.71;86.79;99693.34;10398317;28;20052;-79
2022/10/14 19:50:32;;;;;;;10.00;7.93;;;;;;;13.86;86.61;99671.97;10422629;28;20077;-78
2022/10/14 19:55:34;;;;;;;10.07;7.75;;;;;;;13.88;86.50;99661.03;10417283;28;20083;-77
2022/10/14 20:00:39;;;;;;;10.43;8.13;;;;;;;13.88;86.76;99661.88;10410611;28;20645;-77
2022/10/14 20:05:41;;;;;;;10.80;8.40;;;;;;;14.00;86.29;99672.38;10402910;28;20044;-77
2022/10/14 20:10:44;;;;;;;11.32;8.93;;;;;;;13.99;86.46;99676.94;10453188;23;20144;-78
2022/10/14 20:15:54;;;;;;;8.65;7.72;;;;;;;13.97;86.31;99664.59;10447543;28;20045;-77
2022/10/14 20:20:57;;;;;;;12.23;8.95;;;;;;;13.89;86.63;99655.47;10418703;28;20449;-78
2022/10/14 20:26:00;;;;;;;10.88;9.73;;;;;;;13.91;86.77;99664.25;10422606;28;20041;-79
2022/10/14 20:31:06;;;;;;;13.82;11.18;;;;;;;13.94;86.34;99655.81;10435435;28;20037;-78
2022/10/14 20:36:11;;;;;;;13.57;10.00;;;;;;;13.93;86.38;99648.75;10439926;28;20049;-78
2022/10/14 20:41:17;;;;;;;12.95;9.77;;;;;;;13.87;86.66;99651.22;10444647;28;20116;-78
2022/10/14 20:46:22;;;;;;;15.98;10.95;;;;;;;13.92;86.31;99651.59;10437664;28;20103;-77
2022/10/14 20:51:25;;;;;;;13.80;11.25;;;;;;;13.92;86.14;99659.69;10427958;28;20045;-77
2022/10/14 20:56:30;;;;;;;15.07;12.35;;;;;;;13.97;85.86;99653.81;10395147;28;20148;-77
2022/10/14 21:01:36;;;;;;;17.38;13.05;;;;;;;13.84;86.37;99648.88;10437359;28;20072;-78
2022/10/14 21:06:40;;;;;;;16.13;12.60;;;;;;;14.04;85.59;99644.03;10436565;28;20052;-77
2022/10/14 21:11:43;;;;;;;18.60;13.32;;;;;;;14.05;85.48;99656.53;10418613;28;20123;-78
2022/10/14 21:16:47;;;;;;;15.43;12.98;;;;;;;13.83;85.91;99661.50;10415575;28;21444;-78
2022/10/14 21:21:50;;;;;;;22.80;15.60;;;;;;;13.94;85.81;99676.56;10413345;28;21178;-78
2022/10/14 21:26:53;;;;;;;20.75;16.05;;;;;;;14.00;85.74;99657.00;10409098;28;20052;-78
2022/10/14 21:31:58;;;;;;;22.02;15.95;;;;;;;14.02;85.69;99637.97;10404174;28;20057;-78
2022/10/14 21:37:00;;;;;;;22.60;15.10;;;;;;;13.98;85.36;99652.78;10373968;28;20139;-76
2022/10/14 21:42:03;;;;;;;23.60;17.15;;;;;;;13.99;85.51;99663.44;10403206;28;20510;-79
2022/10/14 21:47:07;;;;;;;23.65;18.67;;;;;;;13.78;86.10;99661.16;10412211;28;20053;-77
2022/10/14 21:52:10;;;;;;;26.05;18.92;;;;;;;13.91;85.50;99639.09;10399671;28;20049;-77
2022/10/14 21:57:13;;;;;;;25.98;19.55;;;;;;;13.94;85.42;99641.47;10392808;28;20068;-77
2022/10/14 22:02:17;;;;;;;26.15;20.38;;;;;;;13.93;85.12;99637.06;10400156;28;20046;-77
2022/10/14 22:07:20;;;;;;;30.15;21.90;;;;;;;13.89;85.57;99652.75;10402148;28;20049;-77
2022/10/14 22:12:24;;;;;;;33.05;23.27;;;;;;;13.71;85.93;99644.78;10409606;28;20147;-76
2022/10/14 22:17:28;;;;;;;34.65;24.33;;;;;;;13.78;85.72;99655.75;10404542;28;20042;-77
2022/10/14 22:22:31;;;;;;;33.05;23.63;;;;;;;13.77;85.83;99664.00;10399835;28;20045;-77
2022/10/14 22:27:33;;;;;;;34.10;24.50;;;;;;;13.62;86.16;99663.78;10390501;28;20607;-77
2022/10/14 22:32:37;;;;;;;34.55;24.65;;;;;;;13.34;87.59;99663.09;10399616;28;20406;-76
2022/10/14 22:37:40;;;;;;;38.72;27.55;;;;;;;13.41;86.58;99645.28;10401253;28;20049;-77
2022/10/14 22:42:43;;;;;;;40.90;28.95;;;;;;;13.52;85.61;99652.25;10381926;28;20045;-77
2022/10/14 22:47:50;;;;;;;40.90;27.77;;;;;;;13.53;85.19;99646.72;10378449;28;20049;-77
2022/10/14 22:52:53;;;;;;;38.25;27.15;;;;;;;13.53;85.04;99646.72;10376254;28;20535;-77
2022/10/14 22:57:56;;;;;;;36.45;24.83;;;;;;;13.47;84.81;99650.06;10406329;28;20045;-77
2022/10/14 23:03:00;;;;;;;38.38;26.58;;;;;;;13.39;85.14;99642.78;10393695;28;20049;-77
2022/10/14 23:08:03;;;;;;;38.30;25.60;;;;;;;13.25;85.36;99651.44;10395630;28;20045;-77
2022/10/14 23:13:06;;;;;;;39.55;26.88;;;;;;;13.31;85.27;99634.59;10404426;28;20044;-77
2022/10/14 23:18:10;;;;;;;43.63;28.63;;;;;;;13.32;85.83;99633.59;10378619;28;20056;-77
2022/10/14 23:23:13;;;;;;;40.97;27.80;;;;;;;13.33;85.72;99632.59;10395268;28;21157;-77
2022/10/14 23:28:15;;;;;;;43.20;27.63;;;;;;;13.25;85.51;99635.25;10400273;28;21562;-77